createdAt,value
2023-01-29T00:02:17.899Z,14.00
2023-01-29T00:04:46.001Z,14.85
2023-01-29T00:07:13.747Z,15.70
2023-01-29T00:09:43.052Z,15.68
2023-01-29T00:12:11.162Z,16.88
2023-01-29T00:14:39.002Z,15.57
2023-01-29T00:17:06.784Z,14.88
2023-01-29T00:19:34.377Z,14.82
2023-01-29T00:22:02.475Z,13.95
2023-01-29T00:24:30.572Z,13.27
2023-01-29T00:26:59.628Z,12.50
2023-01-29T00:29:27.309Z,16.75
2023-01-29T00:31:55.023Z,16.70
2023-01-29T00:34:23.482Z,14.10
2023-01-29T00:36:51.633Z,12.68
2023-01-29T00:39:31.473Z,13.70
2023-01-29T00:42:26.030Z,13.07
2023-01-29T00:44:59.495Z,14.27
2023-01-29T00:47:34.495Z,14.77
2023-01-29T00:50:02.675Z,12.52
2023-01-29T00:52:30.763Z,12.50
2023-01-29T00:54:59.128Z,13.30
2023-01-29T00:57:28.615Z,11.82
2023-01-29T00:59:56.417Z,14.02
2023-01-29T01:02:41.950Z,12.60
2023-01-29T01:05:14.063Z,11.98
2023-01-29T01:07:41.954Z,15.20
2023-01-29T01:10:21.928Z,12.55
2023-01-29T01:12:53.512Z,14.98
2023-01-29T01:15:21.996Z,10.98
2023-01-29T01:17:52.485Z,13.10
2023-01-29T01:20:20.318Z,12.27
2023-01-29T01:22:47.972Z,14.87
2023-01-29T01:25:17.623Z,13.63
2023-01-29T01:27:45.501Z,15.40
2023-01-29T01:30:16.536Z,11.73
2023-01-29T01:32:44.585Z,14.43
2023-01-29T01:35:14.735Z,15.82
2023-01-29T01:37:42.804Z,13.77
2023-01-29T01:40:18.418Z,17.40
2023-01-29T01:42:48.376Z,12.50
2023-01-29T01:45:20.881Z,14.32
2023-01-29T01:47:49.913Z,12.27
2023-01-29T01:50:21.342Z,15.48
2023-01-29T01:52:50.301Z,12.75
2023-01-29T01:55:19.676Z,13.35
2023-01-29T01:57:48.860Z,14.95
2023-01-29T02:00:17.541Z,15.48
2023-01-29T02:03:05.223Z,12.18
2023-01-29T02:05:51.656Z,13.70
2023-01-29T02:08:39.768Z,12.35
2023-01-29T02:11:08.007Z,11.43
2023-01-29T02:13:35.800Z,11.57
2023-01-29T02:16:03.508Z,12.50
2023-01-29T02:18:37.842Z,14.10
2023-01-29T02:21:16.469Z,14.45
2023-01-29T02:23:56.540Z,12.55
2023-01-29T02:26:38.324Z,13.02
2023-01-29T02:29:23.254Z,14.45
2023-01-29T02:31:53.998Z,12.52
2023-01-29T02:34:26.619Z,12.82
2023-01-29T02:36:59.007Z,12.95
2023-01-29T02:39:30.170Z,12.57
2023-01-29T02:42:01.682Z,11.43
2023-01-29T02:44:35.388Z,14.48
2023-01-29T02:47:06.240Z,11.88
2023-01-29T02:49:37.710Z,12.38
2023-01-29T02:52:10.243Z,11.65
2023-01-29T02:54:43.079Z,11.57
2023-01-29T02:57:14.994Z,13.75
2023-01-29T02:59:47.142Z,12.93
2023-01-29T03:02:19.971Z,12.52
2023-01-29T03:04:51.449Z,12.40
2023-01-29T03:07:41.181Z,12.30
2023-01-29T03:10:12.560Z,12.30
2023-01-29T03:12:41.020Z,11.60
2023-01-29T03:15:16.720Z,12.45
2023-01-29T03:17:57.769Z,12.82
2023-01-29T03:20:29.382Z,14.65
2023-01-29T03:23:01.386Z,13.02
2023-01-29T03:25:47.389Z,12.27
2023-01-29T03:28:36.778Z,11.20
2023-01-29T03:31:24.956Z,12.60
2023-01-29T03:34:01.002Z,11.48
2023-01-29T03:36:37.980Z,11.70
2023-01-29T03:39:06.290Z,11.05
2023-01-29T03:41:37.396Z,11.60
2023-01-29T03:44:10.045Z,11.45
2023-01-29T03:46:41.711Z,11.65
2023-01-29T03:49:16.388Z,12.05
2023-01-29T03:51:50.530Z,9.63
2023-01-29T03:54:22.220Z,12.43
2023-01-29T03:56:56.559Z,12.32
2023-01-29T03:59:32.482Z,10.23
2023-01-29T04:02:13.771Z,10.10
2023-01-29T04:04:42.785Z,11.38
2023-01-29T04:07:12.859Z,10.73
2023-01-29T04:09:44.223Z,12.65
2023-01-29T04:12:13.270Z,10.27
2023-01-29T04:14:46.183Z,10.10
2023-01-29T04:17:16.987Z,12.60
2023-01-29T04:20:02.433Z,9.13
2023-01-29T04:22:33.522Z,11.70
2023-01-29T04:25:02.795Z,12.90
2023-01-29T04:27:38.479Z,9.88
2023-01-29T04:30:12.962Z,11.38
2023-01-29T04:32:52.172Z,11.85
2023-01-29T04:35:27.474Z,8.65
2023-01-29T04:37:59.033Z,12.00
2023-01-29T04:40:31.756Z,9.25
2023-01-29T04:43:05.391Z,10.05
2023-01-29T04:45:40.669Z,9.27
2023-01-29T04:48:15.804Z,9.43
2023-01-29T04:50:47.546Z,9.55
2023-01-29T04:53:19.328Z,11.23
2023-01-29T04:55:49.503Z,11.32
2023-01-29T04:58:23.589Z,10.75
2023-01-29T05:00:54.310Z,12.65
2023-01-29T05:03:25.689Z,11.02
2023-01-29T05:05:54.940Z,10.32
2023-01-29T05:08:24.374Z,10.90
2023-01-29T05:10:53.725Z,10.30
2023-01-29T05:13:22.661Z,11.18
2023-01-29T05:15:51.586Z,9.70
2023-01-29T05:18:19.290Z,9.93
2023-01-29T05:20:49.271Z,9.97
2023-01-29T05:23:17.729Z,10.55
2023-01-29T05:25:46.347Z,10.50
2023-01-29T05:28:16.486Z,10.77
2023-01-29T05:30:45.302Z,13.07
2023-01-29T05:33:13.999Z,12.27
2023-01-29T05:35:41.717Z,12.43
2023-01-29T05:38:10.723Z,11.32
2023-01-29T05:40:38.641Z,12.25
2023-01-29T05:43:07.044Z,11.37
2023-01-29T05:45:34.759Z,12.67
2023-01-29T05:48:02.425Z,10.90
2023-01-29T05:50:30.376Z,11.75
2023-01-29T05:52:58.519Z,10.63
2023-01-29T05:55:29.439Z,12.03
2023-01-29T05:57:57.185Z,11.47
2023-01-29T06:00:25.141Z,13.10
2023-01-29T06:02:52.865Z,12.52
2023-01-29T06:05:20.619Z,11.15
2023-01-29T06:07:48.567Z,12.30
2023-01-29T06:10:17.669Z,13.90
2023-01-29T06:12:49.234Z,11.83
2023-01-29T06:15:17.517Z,12.43
2023-01-29T06:17:45.192Z,12.00
2023-01-29T06:20:13.185Z,13.27
2023-01-29T06:22:41.144Z,15.10
2023-01-29T06:25:09.665Z,9.70
2023-01-29T06:27:37.508Z,13.73
2023-01-29T06:30:07.289Z,13.90
2023-01-29T06:32:35.644Z,13.17
2023-01-29T06:35:03.601Z,12.63
2023-01-29T06:37:31.363Z,13.45
2023-01-29T06:39:59.111Z,13.05
2023-01-29T06:42:28.067Z,15.38
2023-01-29T06:44:55.929Z,14.40
2023-01-29T06:47:25.417Z,14.77
2023-01-29T06:49:53.123Z,14.10
2023-01-29T06:52:20.855Z,16.23
2023-01-29T06:54:48.659Z,14.48
2023-01-29T06:57:16.191Z,13.65
2023-01-29T06:59:45.977Z,13.95
2023-01-29T07:02:13.725Z,15.55
2023-01-29T07:04:42.821Z,16.08
2023-01-29T07:07:13.183Z,13.82
2023-01-29T07:09:41.190Z,16.73
2023-01-29T07:12:09.137Z,16.53
2023-01-29T07:14:37.067Z,15.80
2023-01-29T07:17:04.639Z,14.40
2023-01-29T07:19:32.215Z,15.38
2023-01-29T07:22:02.397Z,13.13
2023-01-29T07:24:30.094Z,17.23
2023-01-29T07:26:57.961Z,13.98
2023-01-29T07:29:25.963Z,19.13
2023-01-29T07:31:53.686Z,14.23
2023-01-29T07:34:23.992Z,17.55
2023-01-29T07:36:54.233Z,20.00
2023-01-29T07:39:23.514Z,18.58
2023-01-29T07:41:51.693Z,17.35
2023-01-29T07:44:19.300Z,19.08
2023-01-29T07:46:47.090Z,19.73
2023-01-29T07:49:14.725Z,17.27
2023-01-29T07:51:42.423Z,17.25
2023-01-29T07:54:10.170Z,19.85
2023-01-29T07:56:39.181Z,20.15
2023-01-29T07:59:06.991Z,17.40
2023-01-29T08:01:34.795Z,16.30
2023-01-29T08:04:02.809Z,23.90
2023-01-29T08:06:30.420Z,19.70
2023-01-29T08:08:59.696Z,24.40
2023-01-29T08:11:27.463Z,21.13
2023-01-29T08:13:57.191Z,21.83
2023-01-29T08:16:24.882Z,22.42
2023-01-29T08:18:52.751Z,23.33
2023-01-29T08:21:20.908Z,22.83
2023-01-29T08:23:48.536Z,22.95
2023-01-29T08:26:16.199Z,24.95
2023-01-29T08:28:43.737Z,21.33
2023-01-29T08:31:16.798Z,23.63
2023-01-29T08:33:44.534Z,24.15
2023-01-29T08:36:12.387Z,24.27
2023-01-29T08:38:40.055Z,26.90
2023-01-29T08:41:07.819Z,28.38
2023-01-29T08:43:36.998Z,31.40
2023-01-29T08:46:05.336Z,25.65
2023-01-29T08:48:34.941Z,23.77
2023-01-29T08:51:04.423Z,29.55
2023-01-29T08:53:32.309Z,26.52
2023-01-29T08:56:00.004Z,24.80
2023-01-29T08:58:27.868Z,24.98
2023-01-29T09:00:55.425Z,27.20
2023-01-29T09:03:23.085Z,25.80
2023-01-29T09:05:52.585Z,24.17
2023-01-29T09:08:20.294Z,22.60
2023-01-29T09:10:48.032Z,23.87
2023-01-29T09:13:15.750Z,29.40
2023-01-29T09:15:43.400Z,25.52
2023-01-29T09:18:11.083Z,29.13
2023-01-29T09:20:38.907Z,24.27
2023-01-29T09:23:08.960Z,26.05
2023-01-29T09:25:36.868Z,23.98
2023-01-29T09:28:04.623Z,24.50
2023-01-29T09:30:34.528Z,22.15
2023-01-29T09:33:02.355Z,25.55
2023-01-29T09:35:30.122Z,26.33
2023-01-29T09:37:57.747Z,25.45
2023-01-29T09:40:27.770Z,22.10
2023-01-29T09:42:57.560Z,23.75
2023-01-29T09:45:26.064Z,23.90
2023-01-29T09:47:54.527Z,22.40
2023-01-29T09:50:24.606Z,21.35
2023-01-29T09:52:54.668Z,22.90
2023-01-29T09:55:23.894Z,22.77
2023-01-29T09:57:54.487Z,20.65
2023-01-29T10:00:24.850Z,23.17
2023-01-29T10:03:08.392Z,23.73
2023-01-29T10:05:42.394Z,21.20
2023-01-29T10:08:29.122Z,22.98
2023-01-29T10:11:01.387Z,23.38
2023-01-29T10:13:38.179Z,23.63
2023-01-29T10:16:14.187Z,25.35
2023-01-29T10:19:01.825Z,24.02
2023-01-29T10:21:36.511Z,23.52
2023-01-29T10:24:12.157Z,22.05
2023-01-29T10:26:41.089Z,22.15
2023-01-29T10:29:16.144Z,23.50
2023-01-29T10:31:44.645Z,24.67
2023-01-29T10:34:14.223Z,23.35
2023-01-29T10:36:43.775Z,23.67
2023-01-29T10:39:16.323Z,22.02
2023-01-29T10:41:55.805Z,22.83
2023-01-29T10:44:34.563Z,23.92
2023-01-29T10:47:08.574Z,23.98
2023-01-29T10:49:48.302Z,23.25
2023-01-29T10:52:22.774Z,22.73
2023-01-29T10:54:55.176Z,21.80
2023-01-29T10:57:28.819Z,21.33
2023-01-29T11:00:05.280Z,24.38
2023-01-29T11:02:34.821Z,23.80
2023-01-29T11:05:02.550Z,23.85
2023-01-29T11:07:32.028Z,25.63
2023-01-29T11:10:03.925Z,27.48
2023-01-29T11:12:33.351Z,27.58
2023-01-29T11:15:04.218Z,25.33
2023-01-29T11:17:31.882Z,29.25
2023-01-29T11:19:59.534Z,28.48
2023-01-29T11:22:27.963Z,25.45
2023-01-29T11:25:10.799Z,29.77
2023-01-29T11:27:42.120Z,32.60
2023-01-29T11:30:16.428Z,31.90
2023-01-29T11:32:44.303Z,32.97
2023-01-29T11:35:21.532Z,30.92
2023-01-29T11:37:49.397Z,30.98
2023-01-29T11:40:38.128Z,33.25
2023-01-29T11:43:20.373Z,31.75
2023-01-29T11:45:52.953Z,31.63
2023-01-29T11:48:21.731Z,33.95
2023-01-29T11:50:53.564Z,29.95
2023-01-29T11:53:38.442Z,30.65
2023-01-29T11:56:08.333Z,30.73
2023-01-29T11:58:37.120Z,32.28
2023-01-29T12:01:06.886Z,32.17
2023-01-29T12:03:37.213Z,31.98
2023-01-29T12:06:08.213Z,30.80
2023-01-29T12:08:37.641Z,33.25
2023-01-29T12:11:09.550Z,29.13
2023-01-29T12:13:39.204Z,31.42
2023-01-29T12:16:13.039Z,28.98
2023-01-29T12:18:42.188Z,26.73
2023-01-29T12:21:13.274Z,29.75
2023-01-29T12:23:43.087Z,27.98
2023-01-29T12:26:16.013Z,31.67
2023-01-29T12:28:49.469Z,26.77
2023-01-29T12:31:24.195Z,28.15
2023-01-29T12:33:53.663Z,26.75
2023-01-29T12:36:37.880Z,32.97
2023-01-29T12:39:19.197Z,29.55
2023-01-29T12:42:16.235Z,28.60
2023-01-29T12:44:58.912Z,30.10
2023-01-29T12:50:49.912Z,29.65
2023-01-29T12:53:43.410Z,31.40
2023-01-29T12:56:39.057Z,32.15
2023-01-29T13:06:51.355Z,25.67
2023-01-29T13:09:21.586Z,30.42
2023-01-29T13:11:52.737Z,30.25
2023-01-29T13:14:22.470Z,30.05
2023-01-29T13:16:52.023Z,26.85
2023-01-29T13:19:24.269Z,34.58
2023-01-29T13:21:55.670Z,33.25
2023-01-29T13:24:25.157Z,28.85
2023-01-29T13:26:53.306Z,31.70
2023-01-29T13:29:22.649Z,31.23
2023-01-29T13:31:51.030Z,30.80
2023-01-29T13:34:22.449Z,34.97
2023-01-29T13:36:52.028Z,31.33
2023-01-29T13:39:25.970Z,30.88
2023-01-29T13:41:54.289Z,31.80
2023-01-29T13:44:24.005Z,32.15
2023-01-29T13:46:55.073Z,31.73
2023-01-29T13:49:26.764Z,31.90
2023-01-29T13:51:55.238Z,30.50
2023-01-29T13:54:25.496Z,31.42
2023-01-29T13:57:02.478Z,33.67
2023-01-29T13:59:45.152Z,31.75
2023-01-29T14:02:24.045Z,29.63
2023-01-29T14:04:51.854Z,29.88
2023-01-29T14:07:38.169Z,30.73
2023-01-29T14:10:16.544Z,31.25
2023-01-29T14:12:51.984Z,25.92
2023-01-29T14:19:17.523Z,29.02
2023-01-29T14:21:59.491Z,28.27
2023-01-29T14:24:31.709Z,27.17
2023-01-29T14:27:25.694Z,26.90
2023-01-29T14:29:59.927Z,29.27
2023-01-29T14:32:28.220Z,24.95
2023-01-29T14:35:00.995Z,29.98
2023-01-29T14:37:34.541Z,29.85
2023-01-29T14:40:14.550Z,33.92
2023-01-29T14:43:27.974Z,26.88
2023-01-29T14:46:25.209Z,29.75
2023-01-29T14:49:04.186Z,26.60
2023-01-29T14:51:55.910Z,25.98
2023-01-29T14:54:34.409Z,24.92
2023-01-29T14:57:06.167Z,28.75
2023-01-29T14:59:37.414Z,25.83
2023-01-29T15:02:15.534Z,27.77
2023-01-29T15:04:51.115Z,26.83
2023-01-29T15:07:42.500Z,26.30
2023-01-29T15:10:36.106Z,25.38
2023-01-29T15:13:05.524Z,23.30
2023-01-29T15:15:35.912Z,29.13
2023-01-29T15:18:05.756Z,29.80
2023-01-29T15:20:35.643Z,30.88
2023-01-29T15:23:04.100Z,27.10
2023-01-29T15:25:35.277Z,30.10
2023-01-29T15:28:08.383Z,27.52
2023-01-29T15:30:36.357Z,28.27
2023-01-29T15:33:04.710Z,28.15
2023-01-29T15:35:35.224Z,30.25
2023-01-29T15:38:05.629Z,29.83
2023-01-29T15:40:33.500Z,35.70
2023-01-29T15:43:01.201Z,33.55
2023-01-29T15:45:31.134Z,29.48
2023-01-29T15:48:01.893Z,25.60
2023-01-29T15:50:29.901Z,31.42
2023-01-29T15:52:59.331Z,27.35
2023-01-29T15:55:28.544Z,30.27
2023-01-29T15:57:57.396Z,32.90
2023-01-29T16:00:27.216Z,28.08
2023-01-29T16:02:54.940Z,31.02
2023-01-29T16:05:24.654Z,36.53
2023-01-29T16:07:52.753Z,33.15
2023-01-29T16:10:21.756Z,33.13
2023-01-29T16:12:52.313Z,31.08
2023-01-29T16:15:24.987Z,45.08
2023-01-29T16:17:52.509Z,47.95
2023-01-29T16:20:32.094Z,34.65
2023-01-29T16:23:00.467Z,27.65
2023-01-29T16:25:29.456Z,36.30
2023-01-29T16:27:58.685Z,32.80
2023-01-29T16:30:27.420Z,35.13
2023-01-29T16:33:01.633Z,36.35
2023-01-29T16:35:29.220Z,40.55
2023-01-29T16:38:02.101Z,34.40
2023-01-29T16:40:32.982Z,33.78
2023-01-29T16:43:31.471Z,33.15
2023-01-29T16:46:16.795Z,37.83
2023-01-29T16:48:44.329Z,35.42
2023-01-29T16:51:14.370Z,33.65
2023-01-29T16:53:53.251Z,32.55
2023-01-29T16:56:22.179Z,32.03
2023-01-29T16:58:50.491Z,27.77
2023-01-29T17:01:19.879Z,33.05
2023-01-29T17:03:57.274Z,34.28
2023-01-29T17:06:26.280Z,32.33
2023-01-29T17:08:54.206Z,31.98
2023-01-29T17:11:25.796Z,35.25
2023-01-29T17:13:55.824Z,33.03
2023-01-29T17:16:27.289Z,38.42
2023-01-29T17:18:55.219Z,37.90
2023-01-29T17:21:23.185Z,39.20
2023-01-29T17:23:50.738Z,37.78
2023-01-29T17:26:18.479Z,36.70
2023-01-29T17:28:46.451Z,37.22
2023-01-29T17:31:14.131Z,36.38
2023-01-29T17:33:44.658Z,34.95
2023-01-29T17:36:13.596Z,37.30
2023-01-29T17:38:41.451Z,37.38
2023-01-29T17:41:12.304Z,36.72
2023-01-29T17:43:40.141Z,34.55
2023-01-29T17:46:10.420Z,35.30
2023-01-29T17:48:38.213Z,33.47
2023-01-29T17:51:07.392Z,36.72
2023-01-29T17:53:47.340Z,31.30
2023-01-29T17:56:19.143Z,32.38
2023-01-29T17:58:46.670Z,30.00
2023-01-29T18:01:14.227Z,33.67
2023-01-29T18:03:41.797Z,35.83
2023-01-29T18:06:12.518Z,32.33
2023-01-29T18:08:40.673Z,32.63
2023-01-29T18:11:11.813Z,32.50
2023-01-29T18:13:41.699Z,32.95
2023-01-29T18:16:09.326Z,30.52
2023-01-29T18:18:37.014Z,28.83
2023-01-29T18:21:04.824Z,35.22
2023-01-29T18:23:33.840Z,34.80
2023-01-29T18:26:01.440Z,33.70
2023-01-29T18:28:29.683Z,34.15
2023-01-29T18:30:57.498Z,33.60
2023-01-29T18:33:25.820Z,32.50
2023-01-29T18:35:55.129Z,34.80
2023-01-29T18:38:22.661Z,35.63
2023-01-29T18:40:51.538Z,33.92
2023-01-29T18:43:19.108Z,31.52
2023-01-29T18:45:46.784Z,39.20
2023-01-29T18:48:15.084Z,36.60
2023-01-29T18:50:42.636Z,34.72
2023-01-29T18:53:10.146Z,36.17
2023-01-29T18:55:37.698Z,33.90
2023-01-29T18:58:26.248Z,34.08
2023-01-29T19:00:54.158Z,35.50
2023-01-29T19:03:22.112Z,38.88
2023-01-29T19:05:49.646Z,39.42
2023-01-29T19:08:17.247Z,40.30
2023-01-29T19:10:45.072Z,39.70
2023-01-29T19:13:14.014Z,40.65
2023-01-29T19:15:42.531Z,38.70
2023-01-29T19:18:10.250Z,40.50
2023-01-29T19:20:40.266Z,41.65
2023-01-29T19:23:08.408Z,44.72
2023-01-29T19:25:37.744Z,43.95
2023-01-29T19:28:05.588Z,46.70
2023-01-29T19:30:34.796Z,42.65
2023-01-29T19:33:02.557Z,46.58
2023-01-29T19:35:30.165Z,47.17
2023-01-29T19:37:57.749Z,45.03
2023-01-29T19:40:25.309Z,49.22
2023-01-29T19:42:54.376Z,51.95
2023-01-29T19:45:49.170Z,49.73
2023-01-29T19:48:14.727Z,53.13
2023-01-29T19:50:42.575Z,53.65
2023-01-29T19:53:10.147Z,52.15
2023-01-29T19:55:37.644Z,54.25
2023-01-29T19:58:05.196Z,52.87
2023-01-29T20:00:32.785Z,59.97
2023-01-29T20:03:00.325Z,58.00
2023-01-29T20:05:29.216Z,58.60
2023-01-29T20:07:56.801Z,58.43
2023-01-29T20:10:24.323Z,61.33
2023-01-29T20:12:51.877Z,66.28
2023-01-29T20:15:19.378Z,58.42
2023-01-29T20:17:46.969Z,63.63
2023-01-29T20:20:16.267Z,66.03
2023-01-29T20:22:46.175Z,65.32
2023-01-29T20:25:14.398Z,63.65
2023-01-29T20:27:42.074Z,59.20
2023-01-29T20:30:10.366Z,67.50
2023-01-29T20:32:37.928Z,63.67
2023-01-29T20:35:05.853Z,60.28
2023-01-29T20:37:33.432Z,58.97
2023-01-29T20:40:02.528Z,68.27
2023-01-29T20:42:30.132Z,63.10
2023-01-29T20:44:57.709Z,62.40
2023-01-29T20:47:25.369Z,63.47
2023-01-29T20:49:52.912Z,58.47
2023-01-29T20:52:20.436Z,61.57
2023-01-29T20:54:48.151Z,62.70
2023-01-29T20:57:17.412Z,60.38
2023-01-29T20:59:45.139Z,57.33
2023-01-29T21:02:12.875Z,60.08
2023-01-29T21:04:40.439Z,64.80
2023-01-29T21:07:07.997Z,65.93
2023-01-29T21:09:35.521Z,68.25
2023-01-29T21:12:05.244Z,64.15
2023-01-29T21:14:34.578Z,59.30
2023-01-29T21:17:02.381Z,58.95
2023-01-29T21:19:30.849Z,58.85
2023-01-29T21:21:58.800Z,55.33
2023-01-29T21:24:26.792Z,56.60
2023-01-29T21:26:54.562Z,57.20
2023-01-29T21:29:22.107Z,54.72
2023-01-29T21:31:51.038Z,55.40
2023-01-29T21:34:18.817Z,57.00
2023-01-29T21:36:46.739Z,49.47
2023-01-29T21:39:21.015Z,49.70
2023-01-29T21:42:06.768Z,54.17
2023-01-29T21:44:34.928Z,50.03
2023-01-29T21:47:12.072Z,49.72
2023-01-29T21:49:42.926Z,46.60
2023-01-29T21:52:11.075Z,49.28
2023-01-29T21:54:39.925Z,49.58
2023-01-29T21:57:08.577Z,47.25
2023-01-29T21:59:36.159Z,44.38
2023-01-29T22:02:05.189Z,52.65
2023-01-29T22:04:32.903Z,50.80
2023-01-29T22:07:00.484Z,52.30
2023-01-29T22:09:28.392Z,43.33
2023-01-29T22:11:56.107Z,45.40
2023-01-29T22:14:23.615Z,41.90
2023-01-29T22:16:51.347Z,35.75
2023-01-29T22:19:20.486Z,40.47
2023-01-29T22:21:48.043Z,42.58
2023-01-29T22:24:15.598Z,38.65
2023-01-29T22:26:43.259Z,37.38
2023-01-29T22:29:12.676Z,34.10
2023-01-29T22:31:40.698Z,39.60
2023-01-29T22:34:08.226Z,39.00
2023-01-29T22:36:37.404Z,34.00
2023-01-29T22:39:04.917Z,35.05
2023-01-29T22:41:33.835Z,36.13
2023-01-29T22:44:01.303Z,35.75
2023-01-29T22:46:29.053Z,37.28
2023-01-29T22:48:56.613Z,37.33
2023-01-29T22:51:24.361Z,35.08
2023-01-29T22:53:54.709Z,34.33
2023-01-29T22:56:25.129Z,34.17
2023-01-29T22:58:53.020Z,34.25
2023-01-29T23:01:21.091Z,36.95
2023-01-29T23:03:48.725Z,35.15
2023-01-29T23:06:16.809Z,39.58
2023-01-29T23:08:44.428Z,36.58
2023-01-29T23:11:15.313Z,33.78
2023-01-29T23:13:43.541Z,35.13
2023-01-29T23:16:11.580Z,33.30
2023-01-29T23:18:39.495Z,35.35
2023-01-29T23:21:07.174Z,31.30
2023-01-29T23:23:36.059Z,38.40
2023-01-29T23:26:21.907Z,36.67
2023-01-29T23:28:51.046Z,36.30
2023-01-29T23:31:18.768Z,36.05
2023-01-29T23:33:46.688Z,37.17
2023-01-29T23:36:14.183Z,34.78
2023-01-29T23:38:41.751Z,30.73
2023-01-29T23:41:09.323Z,42.78
2023-01-29T23:43:36.842Z,32.67
2023-01-29T23:46:05.824Z,31.95
2023-01-29T23:48:33.383Z,36.17
2023-01-29T23:51:01.003Z,37.33
2023-01-29T23:53:28.553Z,32.72
2023-01-29T23:55:56.929Z,36.83
2023-01-29T23:58:24.524Z,32.33
